Latest Weather Observations for Parawa West

IDS60801

Issued at 9:35 am CDT Saturday 25 October 2014 (issued every 30 minutes, with the page automatically refreshed every 10 minutes)

About weather observations | Map of weather stations | Latest weather observations for SA | Other Formats
Station Details ID: 023875 Name: SECOND VALLEY FOREST AWS Lat: -35.57 Lon: 138.29 Height: 341.0 m
Data from the previous 72 hours. | See also: Recent months at Parawa West
Date/Time
CDT
Temp
°C
App
Temp
°C
Dew
Point
Rel
Hum
%
Delta-T
°C
Wind Press
QNH
hPa
Press
MSL
hPa
Rain
since 9 am
mm
Dir
 
Spd
km/h
Gust
km/h
Spd
kts
Gust
kts
25/09:30am 15.1 13.4 12.4 84 1.5 SE 13 19 7 10 1017.9 1017.7 0.0
25/09:00am 13.9 11.8 12.3 90 0.9 SE 15 17 8 9 1017.8 1017.6 0.2
25/08:30am 13.8 12.0 13.2 96 0.3 SE 15 19 8 10 1017.9 1017.7 0.2
25/08:00am 12.5 10.3 12.2 98 0.2 SSE 15 20 8 11 1017.8 1017.6 0.2
25/07:30am 12.5 10.4 12.5 100 0.0 SE 15 19 8 10 1017.3 1017.1 0.2
25/07:00am 12.3 9.8 12.3 100 0.0 SE 17 22 9 12 1017.0 1016.9 0.2
25/06:30am 12.1 9.9 12.1 100 0.0 SE 15 20 8 11 1016.5 1016.4 0.2
25/06:00am 12.1 9.5 12.1 100 0.0 SE 17 20 9 11 1016.1 1015.9 0.2
25/05:30am 12.2 9.3 12.2 100 0.0 SE 19 24 10 13 1016.0 1015.8 0.2
25/05:00am 12.3 9.4 12.3 100 0.0 SE 19 24 10 13 1015.7 1015.5 0.2
25/04:30am 12.3 9.8 12.3 100 0.0 SE 17 22 9 12 1015.5 1015.3 0.2
25/04:00am 12.3 9.8 12.3 100 0.0 SE 17 22 9 12 1015.3 1015.1 0.2
25/03:30am 12.3 9.8 12.3 100 0.0 SE 17 24 9 13 1015.4 1015.2 0.2
25/03:00am 12.4 10.3 12.4 100 0.0 SE 15 20 8 11 1015.5 1015.3 0.2
25/02:30am 12.4 9.0 12.4 100 0.0 SE 22 30 12 16 1015.5 1015.3 0.2
25/02:00am 12.3 9.4 12.3 100 0.0 SE 19 24 10 13 1015.5 1015.3 0.2
25/01:30am 12.3 9.4 12.3 100 0.0 SE 19 24 10 13 1015.7 1015.5 0.2
25/01:00am 12.4 9.4 12.4 100 0.0 SE 20 28 11 15 1016.2 1016.0 0.2
25/12:30am 12.5 9.5 12.5 100 0.0 SE 20 28 11 15 1016.4 1016.2 0.2
25/12:00am 12.7 9.4 12.7 100 0.0 SE 22 32 12 17 1016.4 1016.2 0.2
 
Date/Time
CDT
Temp
°C
App
Temp
°C
Dew
Point
Rel
Hum
%
Delta-T
°C
Wind Press
QNH
hPa
Press
MSL
hPa
Rain
since 9 am
mm
Dir
 
Spd
km/h
Gust
km/h
Spd
kts
Gust
kts
24/11:30pm 12.7 9.0 12.7 100 0.0 SE 24 32 13 17 1016.6 1016.5 0.2
24/11:00pm 12.7 9.4 12.7 100 0.0 SSE 22 30 12 16 1016.6 1016.5 0.2
24/10:30pm 12.4 9.0 12.4 100 0.0 SSE 22 33 12 18 1016.4 1016.2 0.2
24/10:00pm 12.4 9.0 12.4 100 0.0 SSE 22 32 12 17 1016.3 1016.1 0.2
24/09:30pm 12.4 9.0 12.4 100 0.0 SSE 22 30 12 16 1016.2 1016.0 0.2
24/09:00pm 12.7 9.4 12.7 100 0.0 S 22 30 12 16 1015.9 1015.7 0.2
24/08:30pm 12.7 9.0 12.7 100 0.0 SSE 24 30 13 16 1015.6 1015.4 0.2
24/08:00pm 12.9 9.6 12.9 100 0.0 S 22 28 12 15 1015.5 1015.3 0.2
24/07:30pm 13.4 10.3 13.4 100 0.0 S 22 26 12 14 1015.2 1015.0 0.2
24/07:00pm 14.2 11.7 14.2 100 0.0 S 20 24 11 13 1015.0 1014.8 0.2
24/06:30pm 14.8 12.6 14.5 98 0.2 S 19 22 10 12 1014.6 1014.4 0.2
24/06:00pm 15.9 13.8 13.6 86 1.3 SSE 17 22 9 12 1014.6 1014.4 0.2
24/05:30pm 16.3 13.7 13.8 85 1.4 S 20 32 11 17 1014.5 1014.3 0.2
24/05:00pm 18.8 18.3 13.9 73 2.9 SSE 9 15 5 8 1013.7 1013.5 0.2
24/04:30pm 20.5 19.3 13.9 66 3.9 SSE 13 17 7 9 1014.3 1014.1 0.2
24/04:00pm 22.8 22.2 14.6 60 4.9 SSW 11 17 6 9 1013.9 1013.7 0.2
24/03:30pm 25.3 22.0 7.9 33 9.4 W 15 22 8 12 1013.9 1013.7 0.2
24/03:00pm 25.1 22.4 9.0 36 8.9 WNW 13 20 7 11 1014.0 1013.9 0.2
24/02:30pm 24.8 22.9 9.1 37 8.6 NW 9 15 5 8 1014.2 1014.0 0.2
24/02:00pm 24.1 22.0 9.7 40 8.0 NW 11 15 6 8 1014.6 1014.4 0.2
24/01:30pm 23.5 21.7 10.9 45 7.1 NW 11 17 6 9 1014.8 1014.6 0.0
24/01:00pm 22.8 20.5 10.6 46 6.8 NW 13 20 7 11 1014.7 1014.5 0.0
24/12:30pm 22.4 20.1 10.5 47 6.6 NW 13 22 7 12 1014.9 1014.7 0.0
24/12:00pm 22.5 19.9 10.6 47 6.6 NW 15 22 8 12 1015.1 1014.9 0.0
24/11:30am 21.8 18.9 10.9 50 6.1 NW 17 28 9 15 1015.3 1015.1 0.0
24/11:00am 20.8 18.6 12.0 57 5.0 NW 15 28 8 15 1015.4 1015.2 0.0
24/10:30am 19.9 18.0 12.9 64 4.0 NW 15 22 8 12 1015.5 1015.3 0.0
24/10:00am 19.1 16.8 13.1 68 3.4 NW 17 26 9 14 1015.5 1015.3 0.0
24/09:30am 18.3 16.0 13.0 71 3.0 NW 17 30 9 16 1015.2 1015.0 0.0
24/09:00am 17.3 14.9 12.8 75 2.5 NNW 17 24 9 13 1014.7 1014.5 0.0
24/08:30am 15.8 13.1 12.9 83 1.6 NNW 19 26 10 14 1014.7 1014.5 0.0
24/08:00am 14.5 12.5 12.7 89 1.0 NNW 15 20 8 11 1014.4 1014.2 0.0
24/07:30am 13.8 11.8 13.8 100 0.0 NNW 17 26 9 14 1014.2 1014.0 0.0
24/07:00am 13.0 10.7 13.0 100 0.0 NNW 17 24 9 13 1013.6 1013.4 0.0
24/06:30am 13.0 10.3 13.0 100 0.0 NNW 19 26 10 14 1013.2 1013.0 0.0
24/06:00am 12.9 11.3 12.9 100 0.0 NNW 13 22 7 12 1012.7 1012.5 0.0
24/05:30am 13.0 11.4 12.7 98 0.2 NNW 13 22 7 12 1012.6 1012.4 0.0
24/05:00am 12.5 11.9 12.3 99 0.1 N 7 11 4 6 1012.1 1011.9 0.0
24/04:30am 12.5 11.4 10.7 89 1.0 N 7 15 4 8 1012.0 1011.8 0.0
24/04:00am 12.4 10.6 10.8 90 0.8 N 11 13 6 7 1012.2 1012.0 0.0
24/03:30am 12.7 10.9 10.8 88 1.0 N 11 13 6 7 1012.4 1012.2 0.0
24/03:00am 12.9 10.6 10.6 86 1.2 NNW 13 22 7 12 1013.1 1012.9 0.0
24/02:30am 12.8 11.0 10.7 87 1.1 NNW 11 17 6 9 1013.4 1013.2 0.0
24/02:00am 12.3 10.9 11.0 92 0.7 NNW 9 13 5 7 1013.7 1013.5 0.0
24/01:30am 11.1 10.3 11.1 100 0.0 N 6 7 3 4 1013.9 1013.7 0.0
24/01:00am 11.6 11.0 11.6 100 0.0 N 6 7 3 4 1014.6 1014.4 0.0
24/12:30am 11.6 11.0 11.6 100 0.0 N 6 9 3 5 1014.8 1014.6 0.0
24/12:00am 11.0 10.6 11.0 100 0.0 SSE 4 6 2 3 1015.1 1014.9 0.0
 
Date/Time
CDT
Temp
°C
App
Temp
°C
Dew
Point
Rel
Hum
%
Delta-T
°C
Wind Press
QNH
hPa
Press
MSL
hPa
Rain
since 9 am
mm
Dir
 
Spd
km/h
Gust
km/h
Spd
kts
Gust
kts
23/11:30pm 8.9 8.3 8.9 100 0.0 SSE 2 4 1 2 1015.5 1015.3 0.0
23/11:00pm 9.5 8.7 9.5 100 0.0 SSE 4 6 2 3 1015.5 1015.3 0.0
23/10:30pm 9.9 8.8 9.9 100 0.0 SSE 6 7 3 4 1015.7 1015.5 0.0
23/10:00pm 9.5 8.7 9.5 100 0.0 SSE 4 7 2 4 1015.5 1015.3 0.0
23/09:30pm 10.2 9.2 10.2 100 0.0 SSE 6 6 3 3 1015.6 1015.4 0.0
23/09:00pm 10.5 9.6 10.5 100 0.0 SSE 6 7 3 4 1015.8 1015.6 0.0
23/08:30pm 10.7 9.8 10.7 100 0.0 SSE 6 7 3 4 1015.7 1015.5 0.0
23/08:00pm 11.1 10.3 11.1 100 0.0 SSE 6 7 3 4 1015.5 1015.3 0.0
23/07:30pm 11.3 10.4 11.3 100 0.0 SSE 7 9 4 5 1015.4 1015.2 0.0
23/07:00pm 11.6 10.4 11.6 100 0.0 SSE 9 13 5 7 1015.4 1015.2 0.0
23/06:30pm 11.8 9.4 11.5 98 0.2 SSE 15 17 8 9 1015.3 1015.1 0.0
23/06:00pm 12.6 10.0 12.1 97 0.3 S 17 19 9 10 1015.3 1015.1 0.0
23/05:30pm 12.5 10.2 11.7 95 0.4 S 15 19 8 10 1015.2 1015.0 0.0
23/05:00pm 13.8 12.1 12.4 91 0.8 S 13 17 7 9 1015.1 1014.9 0.0
23/04:30pm 13.4 10.4 11.8 90 0.9 SSE 19 22 10 12 1015.1 1014.9 0.0
23/04:00pm 14.5 12.0 12.4 87 1.2 SSE 17 22 9 12 1015.1 1014.9 0.0
23/03:30pm 14.1 11.9 12.0 87 1.2 SSE 15 22 8 12 1015.4 1015.2 0.0
23/03:00pm 14.6 12.4 12.1 85 1.4 SSE 15 20 8 11 1015.6 1015.4 0.0
23/02:30pm 15.8 13.9 12.9 83 1.6 S 15 20 8 11 1016.0 1015.8 0.0
23/02:00pm 14.4 11.9 12.4 88 1.1 SSE 17 26 9 14 1016.2 1016.0 0.0
23/01:30pm 14.7 12.7 12.6 87 1.2 SE 15 20 8 11 1016.5 1016.4 0.0
23/01:00pm 14.9 12.5 12.6 86 1.3 SE 17 22 9 12 1016.8 1016.7 0.0
23/12:30pm 14.4 12.1 13.0 91 0.8 SSE 17 26 9 14 1017.0 1016.9 0.0
23/12:00pm 13.6 10.9 13.6 100 0.0 SSE 20 26 11 14 1017.4 1017.2 0.0
23/11:30am 12.6 9.2 12.6 100 0.0 SSE 22 30 12 16 1017.7 1017.5 0.0
23/11:00am 12.0 8.1 12.0 100 0.0 SE 24 32 13 17 1017.8 1017.6 0.0
23/10:30am 12.0 7.7 12.0 100 0.0 SSE 26 33 14 18 1017.9 1017.7 0.0
23/10:00am 11.6 6.8 11.6 100 0.0 SSE 28 35 15 19 1018.3 1018.1 0.0
23/09:30am 11.8 7.4 11.8 100 0.0 SSE 26 37 14 20 1018.3 1018.1 0.0
23/09:00am 11.3 6.0 11.3 100 0.0 SSE 30 39 16 21 1018.5 1018.3 0.0
23/08:30am 11.2 5.9 11.2 100 0.0 SSE 30 39 16 21 1018.4 1018.2 0.0
23/08:00am 10.9 5.9 10.9 100 0.0 SSE 28 37 15 20 1018.4 1018.2 0.0
23/07:30am 10.9 5.5 10.9 100 0.0 SSE 30 39 16 21 1018.5 1018.3 0.0
23/07:00am 10.9 5.5 10.9 100 0.0 SSE 30 39 16 21 1018.3 1018.1 0.0
23/06:30am 10.8 5.0 10.8 100 0.0 SSE 32 37 17 20 1018.1 1017.9 0.0
23/06:00am 10.9 5.1 10.9 100 0.0 SSE 32 41 17 22 1018.2 1018.0 0.0
23/05:30am 11.1 5.4 11.1 100 0.0 SSE 32 41 17 22 1018.3 1018.1 0.0
23/05:00am 11.1 5.4 11.1 100 0.0 SSE 32 43 17 23 1018.1 1017.9 0.0
23/04:30am 11.3 6.0 11.3 100 0.0 SSE 30 37 16 20 1018.0 1017.8 0.0
23/04:00am 11.2 6.3 11.2 100 0.0 SSE 28 35 15 19 1018.5 1018.3 0.0
23/03:30am 11.3 6.0 11.3 100 0.0 SSE 30 41 16 22 1018.4 1018.2 0.0
23/03:00am 11.3 6.4 11.3 100 0.0 SSE 28 37 15 20 1018.6 1018.4 0.0
23/02:30am 11.3 5.6 11.3 100 0.0 SSE 32 41 17 22 1018.7 1018.5 0.0
23/02:00am 11.3 6.0 11.3 100 0.0 SSE 30 39 16 21 1018.9 1018.7 0.0
23/01:30am 11.3 5.6 11.3 100 0.0 SSE 32 44 17 24 1019.1 1019.0 0.0
23/01:00am 11.4 6.1 11.4 100 0.0 SSE 30 39 16 21 1019.4 1019.3 0.0
23/12:30am 11.2 5.5 11.2 100 0.0 SSE 32 43 17 23 1019.6 1019.5 0.0
23/12:00am 11.4 6.1 11.4 100 0.0 SSE 30 41 16 22 1019.7 1019.6 0.0
 
Date/Time
CDT
Temp
°C
App
Temp
°C
Dew
Point
Rel
Hum
%
Delta-T
°C
Wind Press
QNH
hPa
Press
MSL
hPa
Rain
since 9 am
mm
Dir
 
Spd
km/h
Gust
km/h
Spd
kts
Gust
kts
22/11:30pm 11.5 5.7 11.5 100 0.0 SSE 33 43 18 23 1019.8 1019.7 0.0
22/11:00pm 11.4 5.2 11.4 100 0.0 SSE 35 44 19 24 1020.0 1019.9 0.0
22/10:30pm 11.6 5.1 11.6 100 0.0 SSE 37 46 20 25 1020.1 1020.0 0.0
22/10:00pm 11.6 5.1 11.6 100 0.0 SSE 37 48 20 26 1020.4 1020.2 0.0
22/09:30pm 11.4 5.2 11.4 100 0.0 SSE 35 46 19 25 1020.1 1020.0 0.0
22/09:00pm 11.7 5.6 11.7 100 0.0 SSE 35 46 19 25 1019.9 1019.8 0.0
22/08:30pm 11.7 5.6 11.7 100 0.0 SSE 35 44 19 24 1019.5 1019.4 0.0
22/08:00pm 11.8 5.7 11.8 100 0.0 SSE 35 46 19 25 1019.2 1019.1 0.0
22/07:30pm 11.8 6.1 11.8 100 0.0 SSE 33 44 18 24 1019.0 1018.9 0.0
22/07:00pm 12.1 6.5 12.1 100 0.0 SSE 33 43 18 23 1018.7 1018.5 0.0
22/06:30pm 12.3 6.4 12.3 100 0.0 SSE 35 44 19 24 1018.6 1018.4 0.0
22/06:00pm 12.4 6.5 12.4 100 0.0 SSE 35 44 19 24 1018.5 1018.3 0.0
22/05:30pm 12.6 7.1 12.6 100 0.0 SSE 33 44 18 24 1018.5 1018.3 0.0
22/05:00pm 13.0 7.9 13.0 100 0.0 SSE 32 41 17 22 1018.6 1018.4 0.0
22/04:30pm 13.1 7.8 13.1 100 0.0 SSE 33 43 18 23 1018.6 1018.4 0.0
22/04:00pm 13.3 8.1 12.8 97 0.3 S 32 44 17 24 1018.7 1018.5 0.0
22/03:30pm 13.4 8.2 12.9 97 0.3 S 32 41 17 22 1018.9 1018.7 0.0
22/03:00pm 13.8 8.8 13.5 98 0.2 S 32 39 17 21 1018.9 1018.7 0.0
22/02:30pm 14.0 9.2 12.9 93 0.6 S 30 39 16 21 1019.0 1018.9 0.0
22/02:00pm 15.1 10.4 13.1 88 1.1 S 30 35 16 19 1019.1 1019.0 0.0
22/01:30pm 14.9 10.6 13.1 89 1.0 S 28 35 15 19 1019.3 1019.2 0.0
22/01:00pm 14.8 10.5 13.2 90 0.9 S 28 37 15 20 1019.3 1019.2 0.0
22/12:30pm 14.9 10.2 13.3 90 0.9 S 30 37 16 20 1019.3 1019.2 0.0
22/12:00pm 16.2 12.1 13.7 85 1.4 S 28 35 15 19 1019.2 1019.1 0.0
22/11:30am 16.5 12.2 13.2 81 1.9 S 28 39 15 21 1019.2 1019.1 0.0
22/11:00am 16.9 12.5 13.0 78 2.2 S 28 37 15 20 1018.9 1018.7 0.0
22/10:30am 16.6 12.2 12.9 79 2.1 S 28 35 15 19 1019.0 1018.9 0.0
22/10:00am 16.1 11.7 12.8 81 1.9 S 28 35 15 19 1018.9 1018.7 0.0

Other Formats:

Comma delimited format used in spreadsheet applications
http://www.bom.gov.au/fwo/IDS60801/IDS60801.94811.axf

JavaScript Object Notation format (JSON) in row-major order
http://www.bom.gov.au/fwo/IDS60801/IDS60801.94811.json